Time;durP1;ratioP1;P1;durP2;ratioP2;P2;SDS_P1;SDS_P2;PMS_P1;PMS_P2;Temp;Humidity;BMP_temperature;BMP_pressure;BME280_temperature;BME280_humidity;BME280_pressure;Samples;Min_cycle;Max_cycle;Signal;HPM_P1;HPM_P2
2021/05/09 00:02:12;;;;;;;2.67;2.47;;;12.70;99.90;;;;;;5054129;28;20292;-59
2021/05/09 00:04:39;;;;;;;3.50;2.50;;;12.60;99.90;;;;;;5053871;28;20206;-60
2021/05/09 00:07:06;;;;;;;2.37;2.13;;;12.50;99.90;;;;;;5054038;28;20555;-59
2021/05/09 00:09:33;;;;;;;3.20;2.20;;;12.50;99.90;;;;;;5053989;28;20673;-59
2021/05/09 00:12:01;;;;;;;2.37;2.17;;;12.50;99.90;;;;;;5054225;28;20202;-59
2021/05/09 00:14:28;;;;;;;3.90;2.50;;;12.40;99.90;;;;;;5054015;28;20205;-58
2021/05/09 00:16:55;;;;;;;2.57;2.30;;;12.40;99.90;;;;;;5054179;28;20201;-58
2021/05/09 00:19:22;;;;;;;2.40;2.20;;;12.40;99.90;;;;;;5053785;28;20259;-59
2021/05/09 00:21:49;;;;;;;3.17;2.43;;;12.40;99.90;;;;;;5054072;28;20274;-59
2021/05/09 00:24:16;;;;;;;2.50;2.30;;;12.20;99.90;;;;;;5053849;28;20201;-66
2021/05/09 00:26:43;;;;;;;3.30;2.30;;;12.20;99.90;;;;;;5053833;28;20239;-66
2021/05/09 00:29:10;;;;;;;3.90;2.40;;;12.20;99.90;;;;;;5053888;28;20296;-66
2021/05/09 00:31:37;;;;;;;3.73;2.60;;;12.10;99.90;;;;;;5053946;28;20202;-67
2021/05/09 00:34:04;;;;;;;2.97;2.47;;;12.20;99.90;;;;;;5053410;28;20308;-66
2021/05/09 00:36:31;;;;;;;4.27;2.33;;;12.20;99.90;;;;;;5053503;28;20289;-66
2021/05/09 00:38:58;;;;;;;2.97;2.60;;;12.20;99.90;;;;;;5053734;28;20308;-66
2021/05/09 00:41:24;;;;;;;2.13;1.90;;;12.10;99.90;;;;;;5053028;28;20201;-66
2021/05/09 00:43:51;;;;;;;2.43;2.23;;;12.00;99.90;;;;;;5053451;28;20201;-66
2021/05/09 00:46:19;;;;;;;2.60;2.40;;;12.00;99.90;;;;;;5053250;28;20255;-65
2021/05/09 00:48:46;;;;;;;5.07;2.17;;;12.00;99.90;;;;;;5053335;28;20573;-66
2021/05/09 00:51:14;;;;;;;2.87;2.37;;;12.00;99.90;;;;;;5053262;28;20206;-66
2021/05/09 00:53:43;;;;;;;2.13;1.90;;;12.00;99.90;;;;;;5053451;28;20212;-65
2021/05/09 00:56:12;;;;;;;2.07;1.87;;;12.00;99.90;;;;;;5053436;28;20295;-66
2021/05/09 00:58:43;;;;;;;1.97;1.80;;;11.90;99.90;;;;;;5053131;28;20229;-65
2021/05/09 01:01:11;;;;;;;2.70;1.80;;;11.90;99.90;;;;;;5053122;28;20632;-67
2021/05/09 01:03:41;;;;;;;2.23;2.00;;;11.80;99.90;;;;;;5053154;28;20628;-66
2021/05/09 01:06:09;;;;;;;3.50;1.97;;;11.70;99.90;;;;;;5053214;28;20227;-67
2021/05/09 01:08:36;;;;;;;2.30;2.10;;;11.70;99.90;;;;;;5053961;28;20293;-66
2021/05/09 01:11:04;;;;;;;2.73;2.13;;;11.80;99.90;;;;;;5053678;28;20204;-67
2021/05/09 01:13:31;;;;;;;3.13;2.50;;;11.80;99.90;;;;;;5052946;28;20243;-66
2021/05/09 01:16:00;;;;;;;2.93;2.00;;;11.70;99.90;;;;;;5052632;28;20614;-65
2021/05/09 01:18:27;;;;;;;4.27;2.37;;;11.50;99.90;;;;;;5052458;28;20768;-66
2021/05/09 01:20:55;;;;;;;2.53;2.20;;;11.60;99.90;;;;;;5052909;28;20217;-66
2021/05/09 01:23:22;;;;;;;3.57;2.00;;;11.60;99.90;;;;;;5053009;28;20201;-67
2021/05/09 01:25:49;;;;;;;2.30;2.10;;;11.50;99.90;;;;;;5052952;28;20205;-65
2021/05/09 01:28:16;;;;;;;2.80;2.30;;;11.60;99.90;;;;;;5052382;28;20233;-65
2021/05/09 01:30:43;;;;;;;3.00;2.17;;;11.60;99.90;;;;;;5052875;28;20198;-66
2021/05/09 01:33:10;;;;;;;2.87;2.30;;;11.70;99.90;;;;;;5052722;28;20197;-66
2021/05/09 01:35:37;;;;;;;2.57;2.37;;;11.60;99.90;;;;;;5052685;28;20296;-66
2021/05/09 01:38:05;;;;;;;2.57;2.30;;;11.60;99.90;;;;;;5052789;28;20288;-66
2021/05/09 01:40:32;;;;;;;2.87;2.30;;;11.60;99.90;;;;;;5052395;28;20316;-66
2021/05/09 01:42:58;;;;;;;2.33;2.13;;;11.70;99.90;;;;;;5052625;28;20201;-66
2021/05/09 01:45:25;;;;;;;3.17;2.10;;;11.50;99.90;;;;;;5052567;28;20228;-66
2021/05/09 01:47:52;;;;;;;2.60;2.40;;;11.60;99.90;;;;;;5051819;28;20296;-67
2021/05/09 01:50:20;;;;;;;2.97;2.27;;;11.60;99.90;;;;;;5052317;28;20237;-66
2021/05/09 01:52:47;;;;;;;2.63;2.13;;;11.60;99.90;;;;;;5052364;28;20202;-66
2021/05/09 01:55:18;;;;;;;3.83;2.40;;;11.60;99.90;;;;;;5052600;28;20248;-66
2021/05/09 01:57:45;;;;;;;3.73;2.60;;;11.60;99.90;;;;;;5052489;28;20276;-66
2021/05/09 02:00:13;;;;;;;2.67;2.43;;;11.60;99.90;;;;;;5052004;28;20713;-65
2021/05/09 02:02:40;;;;;;;2.40;2.20;;;11.50;99.90;;;;;;5052198;28;20739;-67
2021/05/09 02:05:08;;;;;;;3.00;2.43;;;11.40;99.90;;;;;;5052345;28;20201;-66
2021/05/09 02:07:35;;;;;;;2.53;2.33;;;11.40;99.90;;;;;;5052479;28;20197;-66
2021/05/09 02:10:04;;;;;;;2.93;2.53;;;11.50;99.90;;;;;;5052381;28;20197;-65
2021/05/09 02:12:32;;;;;;;4.13;2.63;;;11.60;99.90;;;;;;5052409;28;20296;-67
2021/05/09 02:14:59;;;;;;;3.53;2.53;;;11.50;99.90;;;;;;5052310;28;20229;-66
2021/05/09 02:17:26;;;;;;;3.07;2.43;;;11.50;99.90;;;;;;5052341;28;20208;-67
2021/05/09 02:19:52;;;;;;;3.37;2.60;;;11.40;99.90;;;;;;5052141;28;20214;-66
2021/05/09 02:22:19;;;;;;;3.87;2.70;;;11.30;99.90;;;;;;5052354;28;20297;-67
2021/05/09 02:24:47;;;;;;;3.50;2.70;;;11.20;99.90;;;;;;5052316;28;20609;-67
2021/05/09 02:27:14;;;;;;;3.03;2.73;;;11.20;99.90;;;;;;5051925;28;20229;-66
2021/05/09 02:29:41;;;;;;;3.20;2.80;;;11.30;99.90;;;;;;5052171;28;20219;-67
2021/05/09 02:32:08;;;;;;;4.10;2.90;;;11.20;99.90;;;;;;5052028;28;20296;-65
2021/05/09 02:34:35;;;;;;;5.30;2.60;;;11.10;99.90;;;;;;5051836;28;20205;-66
2021/05/09 02:37:04;;;;;;;3.03;2.77;;;11.20;99.90;;;;;;5051929;28;20263;-65
2021/05/09 02:39:31;;;;;;;3.07;2.70;;;11.20;99.90;;;;;;5052049;28;20312;-66
2021/05/09 02:41:58;;;;;;;3.30;3.00;;;11.10;99.90;;;;;;5052148;28;20292;-66
2021/05/09 02:44:25;;;;;;;3.33;2.80;;;11.00;99.90;;;;;;5051960;28;20240;-66
2021/05/09 02:46:52;;;;;;;2.97;2.60;;;11.10;99.90;;;;;;5051782;28;20563;-67
2021/05/09 02:49:20;;;;;;;3.47;2.47;;;11.10;99.90;;;;;;5051875;28;20197;-65
2021/05/09 02:51:47;;;;;;;2.97;2.63;;;11.00;99.90;;;;;;5052015;28;20292;-67
2021/05/09 02:54:13;;;;;;;3.87;2.67;;;10.90;99.90;;;;;;5051975;28;20582;-65
2021/05/09 02:56:40;;;;;;;2.80;2.50;;;10.90;99.90;;;;;;5051777;28;20209;-66
2021/05/09 02:59:07;;;;;;;4.13;2.70;;;10.80;99.90;;;;;;5052108;28;20215;-66
2021/05/09 03:01:34;;;;;;;2.87;2.60;;;10.80;99.90;;;;;;5055433;28;20229;-67
2021/05/09 03:04:02;;;;;;;2.60;2.40;;;10.90;99.90;;;;;;5055433;28;20215;-66
2021/05/09 03:06:29;;;;;;;2.70;2.50;;;10.90;99.90;;;;;;5055592;28;20294;-66
2021/05/09 03:08:56;;;;;;;4.60;2.50;;;10.90;99.90;;;;;;5055202;28;20538;-65
2021/05/09 03:11:28;;;;;;;3.23;2.63;;;11.00;99.90;;;;;;5055581;28;20237;-66
2021/05/09 03:13:54;;;;;;;2.70;2.47;;;11.00;99.90;;;;;;5055134;28;20669;-66
2021/05/09 03:16:22;;;;;;;3.47;3.17;;;11.00;99.90;;;;;;5055088;28;20240;-66
2021/05/09 03:18:49;;;;;;;2.90;2.60;;;11.00;99.90;;;;;;5055092;28;20207;-66
2021/05/09 03:21:16;;;;;;;3.60;2.90;;;11.00;99.90;;;;;;5054874;28;20701;-64
2021/05/09 03:23:43;;;;;;;3.30;2.40;;;11.00;99.90;;;;;;5054978;28;20231;-65
2021/05/09 03:26:10;;;;;;;2.50;2.30;;;10.90;99.90;;;;;;5055010;28;20292;-66
2021/05/09 03:28:39;;;;;;;2.80;2.60;;;10.90;99.90;;;;;;5054779;28;20228;-66
2021/05/09 03:31:06;;;;;;;3.03;2.73;;;10.80;99.90;;;;;;5054831;28;20581;-66
2021/05/09 03:33:33;;;;;;;3.23;2.93;;;10.80;99.90;;;;;;5054497;28;20201;-66
2021/05/09 03:36:00;;;;;;;2.70;2.50;;;10.70;99.90;;;;;;5054704;28;20286;-66
2021/05/09 03:38:28;;;;;;;3.30;2.97;;;10.70;99.90;;;;;;5054687;28;20228;-66
2021/05/09 03:40:55;;;;;;;3.60;2.70;;;10.80;99.90;;;;;;5054658;28;20217;-67
2021/05/09 03:43:22;;;;;;;3.33;2.70;;;10.90;99.90;;;;;;5054448;28;20288;-65
2021/05/09 03:45:49;;;;;;;2.93;2.70;;;11.00;99.90;;;;;;5054775;28;20282;-66
2021/05/09 03:48:15;;;;;;;3.33;2.57;;;11.00;99.90;;;;;;5054642;28;20197;-66
2021/05/09 03:50:42;;;;;;;3.40;2.60;;;11.10;99.90;;;;;;5054417;28;20197;-66
2021/05/09 03:53:09;;;;;;;3.13;2.53;;;11.10;99.90;;;;;;5054796;28;20209;-66
2021/05/09 03:55:37;;;;;;;2.67;2.37;;;11.20;99.90;;;;;;5054286;28;20563;-66
2021/05/09 03:58:03;;;;;;;2.70;2.50;;;11.20;99.90;;;;;;5054354;28;20208;-66
2021/05/09 04:00:30;;;;;;;4.07;2.60;;;11.30;99.90;;;;;;5054268;28;20604;-66
2021/05/09 04:02:57;;;;;;;3.33;2.40;;;11.40;99.90;;;;;;5054446;28;20201;-66
2021/05/09 04:05:24;;;;;;;3.90;2.60;;;11.40;99.90;;;;;;5054376;28;20228;-65
2021/05/09 04:07:51;;;;;;;3.23;2.93;;;11.40;99.90;;;;;;5054407;28;20289;-65
2021/05/09 04:10:18;;;;;;;3.10;2.30;;;11.40;99.90;;;;;;5054323;28;20766;-66
2021/05/09 04:12:51;;;;;;;2.43;2.20;;;11.50;99.90;;;;;;5053825;28;20225;-65
2021/05/09 04:15:18;;;;;;;3.93;2.57;;;11.50;99.90;;;;;;5053840;28;20236;-66
2021/05/09 04:17:45;;;;;;;6.47;2.50;;;11.60;99.90;;;;;;5054234;28;20198;-65
2021/05/09 04:20:13;;;;;;;3.70;2.43;;;11.70;99.90;;;;;;5053974;28;20253;-58
2021/05/09 04:22:40;;;;;;;2.50;2.30;;;11.70;99.90;;;;;;5054262;28;20248;-59
2021/05/09 04:25:07;;;;;;;2.57;2.37;;;11.90;99.90;;;;;;5054025;28;20287;-59
2021/05/09 04:27:34;;;;;;;2.70;2.40;;;11.90;99.90;;;;;;5053689;28;20234;-60
2021/05/09 04:30:01;;;;;;;5.00;2.50;;;12.00;99.90;;;;;;5053576;28;20711;-59
2021/05/09 04:32:28;;;;;;;2.33;2.10;;;12.10;99.90;;;;;;5053781;28;20300;-59
2021/05/09 04:34:56;;;;;;;2.40;2.13;;;12.20;99.90;;;;;;5053475;28;20676;-59
2021/05/09 04:37:23;;;;;;;2.90;2.50;;;12.20;99.90;;;;;;5053973;28;20247;-59
2021/05/09 04:39:50;;;;;;;3.03;2.63;;;12.30;99.90;;;;;;5053764;28;20227;-59
2021/05/09 04:42:17;;;;;;;3.40;2.40;;;12.50;99.90;;;;;;5053664;28;20371;-59
2021/05/09 04:44:44;;;;;;;3.37;2.53;;;12.60;99.90;;;;;;5053698;28;20197;-58
2021/05/09 04:47:11;;;;;;;2.43;2.23;;;12.70;99.90;;;;;;5053386;28;20208;-59
2021/05/09 04:49:38;;;;;;;2.73;2.50;;;12.70;99.90;;;;;;5053260;28;20197;-59
2021/05/09 04:52:05;;;;;;;3.13;2.30;;;12.70;99.90;;;;;;5053476;28;20255;-59
2021/05/09 04:54:32;;;;;;;2.70;2.10;;;12.60;99.90;;;;;;5053729;28;20275;-59
2021/05/09 04:56:59;;;;;;;3.63;2.30;;;12.60;99.90;;;;;;5053605;28;20550;-59
2021/05/09 04:59:26;;;;;;;5.10;2.13;;;12.80;99.90;;;;;;5053265;28;20289;-59
2021/05/09 05:01:53;;;;;;;2.73;2.20;;;13.00;99.90;;;;;;5053212;28;20688;-59
2021/05/09 05:04:20;;;;;;;2.90;2.27;;;13.00;99.90;;;;;;5053138;28;20224;-60
2021/05/09 05:06:47;;;;;;;2.83;2.40;;;12.80;99.90;;;;;;5053408;28;20213;-58
2021/05/09 05:09:15;;;;;;;2.70;2.50;;;12.90;99.90;;;;;;5052935;28;20664;-59
2021/05/09 05:11:42;;;;;;;2.40;2.20;;;12.80;99.90;;;;;;5052840;28;20241;-58
2021/05/09 05:14:09;;;;;;;2.30;2.10;;;12.80;99.90;;;;;;5052703;28;20347;-59
2021/05/09 05:16:36;;;;;;;2.30;2.10;;;12.90;99.90;;;;;;5052893;28;20201;-59
2021/05/09 05:19:03;;;;;;;3.40;2.57;;;13.10;99.90;;;;;;5052774;28;20291;-59
2021/05/09 05:21:31;;;;;;;3.27;2.23;;;13.40;99.90;;;;;;5052976;28;20228;-60
2021/05/09 05:23:58;;;;;;;2.63;2.23;;;13.60;99.90;;;;;;5051896;28;20255;-59
2021/05/09 05:26:24;;;;;;;3.13;2.10;;;13.80;99.90;;;;;;5052672;28;20643;-59
2021/05/09 05:28:56;;;;;;;2.78;2.42;;;13.90;99.90;;;;;;5052644;28;20695;-60
2021/05/09 05:31:23;;;;;;;2.50;2.30;;;14.10;99.90;;;;;;5053122;28;20232;-60
2021/05/09 05:33:49;;;;;;;2.20;2.00;;;14.30;99.90;;;;;;5052695;28;20198;-59
2021/05/09 05:36:17;;;;;;;3.87;2.50;;;14.30;99.90;;;;;;5052870;28;20304;-60
2021/05/09 05:38:45;;;;;;;2.47;1.90;;;14.20;99.90;;;;;;5052854;28;20253;-59
2021/05/09 05:41:12;;;;;;;2.80;2.30;;;14.10;99.90;;;;;;5052622;28;20225;-60
2021/05/09 05:43:39;;;;;;;5.90;2.50;;;14.10;99.90;;;;;;5052238;28;20201;-60
2021/05/09 05:46:05;;;;;;;2.77;2.43;;;13.90;99.90;;;;;;5052789;28;20201;-59
2021/05/09 05:48:32;;;;;;;2.97;2.30;;;14.00;99.90;;;;;;5052464;28;20240;-58
2021/05/09 05:50:59;;;;;;;2.40;2.20;;;14.00;99.90;;;;;;5052916;28;20197;-60
2021/05/09 05:53:28;;;;;;;3.40;2.40;;;14.00;99.90;;;;;;5052892;28;20233;-58
2021/05/09 05:55:57;;;;;;;2.50;2.30;;;14.00;99.90;;;;;;5052656;28;20205;-59
2021/05/09 05:58:24;;;;;;;2.40;2.20;;;13.90;99.90;;;;;;5052112;28;20259;-59
2021/05/09 06:00:51;;;;;;;2.50;2.07;;;13.80;99.90;;;;;;5052147;28;20697;-59
2021/05/09 06:03:18;;;;;;;2.50;2.30;;;13.80;99.90;;;;;;5052141;28;20293;-59
2021/05/09 06:05:45;;;;;;;2.60;2.20;;;13.90;99.90;;;;;;5052081;28;20267;-59
2021/05/09 06:08:15;;;;;;;2.37;1.90;;;14.00;99.90;;;;;;5052537;28;20260;-58
2021/05/09 06:10:42;;;;;;;3.80;2.23;;;14.10;99.90;;;;;;5052423;28;20237;-59
2021/05/09 06:13:10;;;;;;;2.43;2.20;;;14.40;99.90;;;;;;5052072;28;20292;-59
2021/05/09 06:15:37;;;;;;;5.30;2.37;;;14.50;99.90;;;;;;5052137;28;20201;-59
2021/05/09 06:18:05;;;;;;;3.10;2.30;;;14.80;99.90;;;;;;5052447;28;20213;-60
2021/05/09 06:20:32;;;;;;;2.70;2.20;;;14.90;99.90;;;;;;5052129;28;20228;-59
2021/05/09 06:23:01;;;;;;;3.47;2.28;;;15.00;99.90;;;;;;5051725;28;20685;-59
2021/05/09 06:25:29;;;;;;;3.85;2.63;;;15.20;99.90;;;;;;5052188;28;20225;-59
2021/05/09 06:27:56;;;;;;;3.03;2.15;;;15.30;99.90;;;;;;5051914;28;20329;-59
2021/05/09 06:30:24;;;;;;;2.22;2.00;;;15.50;99.90;;;;;;5052028;28;20620;-60
2021/05/09 06:32:52;;;;;;;2.42;2.10;;;15.60;99.90;;;;;;5051782;28;20570;-60
2021/05/09 06:35:20;;;;;;;3.88;1.90;;;15.70;99.90;;;;;;5054364;28;20201;-59
2021/05/09 06:37:49;;;;;;;3.47;2.25;;;15.80;99.90;;;;;;5055836;28;20657;-59
2021/05/09 06:40:22;;;;;;;2.25;2.05;;;15.90;99.90;;;;;;5055972;28;20209;-58
2021/05/09 06:42:55;;;;;;;2.50;1.80;;;16.10;99.90;;;;;;5056039;28;20202;-59
2021/05/09 06:45:26;;;;;;;4.15;2.60;;;16.20;99.90;;;;;;5055801;28;20251;-59
2021/05/09 06:47:53;;;;;;;2.63;1.77;;;16.40;99.90;;;;;;5055882;28;20189;-59
2021/05/09 06:50:20;;;;;;;2.30;1.80;;;16.50;99.90;;;;;;5055636;28;20229;-59
2021/05/09 06:52:47;;;;;;;2.13;1.75;;;16.60;99.90;;;;;;5055476;28;20284;-60
2021/05/09 06:55:14;;;;;;;2.33;1.83;;;16.70;99.90;;;;;;5055754;28;20293;-58
2021/05/09 06:57:42;;;;;;;1.80;1.70;;;16.80;99.90;;;;;;5055694;28;20220;-60
2021/05/09 07:00:10;;;;;;;2.58;2.20;;;16.80;99.90;;;;;;5055387;28;20307;-60
2021/05/09 07:02:38;;;;;;;2.88;2.00;;;16.90;99.90;;;;;;5055075;28;20201;-59
2021/05/09 07:05:05;;;;;;;3.20;2.00;;;17.00;99.90;;;;;;5054898;28;20661;-58
2021/05/09 07:07:32;;;;;;;2.10;1.90;;;17.00;99.90;;;;;;5054900;28;20609;-59
2021/05/09 07:09:59;;;;;;;2.08;1.88;;;17.00;99.90;;;;;;5055374;28;20296;-60
2021/05/09 07:12:26;;;;;;;2.72;1.88;;;17.00;99.90;;;;;;5055452;28;20567;-59
2021/05/09 07:14:54;;;;;;;2.88;1.85;;;17.00;99.90;;;;;;5055268;28;20280;-59
2021/05/09 07:17:21;;;;;;;2.10;1.90;;;17.00;99.90;;;;;;5055206;28;20208;-60
2021/05/09 07:19:48;;;;;;;2.10;1.90;;;17.10;99.90;;;;;;5054772;28;20201;-59
2021/05/09 07:22:26;;;;;;;3.42;1.90;;;17.10;99.90;;;;;;5054837;28;20284;-59
2021/05/09 07:24:54;;;;;;;3.42;1.90;;;17.20;99.90;;;;;;5055204;28;20182;-60
2021/05/09 07:27:21;;;;;;;2.67;1.80;;;17.20;99.90;;;;;;5054383;28;20249;-59
2021/05/09 07:29:48;;;;;;;2.00;1.73;;;17.30;99.90;;;;;;5054455;28;20205;-58
2021/05/09 07:32:15;;;;;;;2.22;1.83;;;17.30;99.90;;;;;;5054560;28;20295;-58
2021/05/09 07:34:42;;;;;;;2.10;1.70;;;17.40;99.90;;;;;;5054166;28;20308;-60
2021/05/09 07:37:09;;;;;;;3.03;1.73;;;17.40;99.90;;;;;;5054597;28;20235;-60
2021/05/09 07:39:36;;;;;;;1.70;1.60;;;17.50;99.90;;;;;;5054779;28;20316;-60
2021/05/09 07:42:04;;;;;;;1.75;1.60;;;17.60;99.90;;;;;;5039482;28;20210;-59
2021/05/09 07:44:31;;;;;;;1.83;1.63;;;17.60;99.90;;;;;;5034682;28;20291;-58
2021/05/09 07:46:57;;;;;;;2.10;1.63;;;17.60;99.90;;;;;;5033445;28;20742;-58
2021/05/09 07:49:24;;;;;;;2.90;1.67;;;17.70;99.90;;;;;;5034560;28;20622;-58
2021/05/09 07:51:51;;;;;;;1.75;1.48;;;17.60;99.90;;;;;;5034373;28;20237;-59
2021/05/09 07:54:19;;;;;;;3.17;1.80;;;17.70;99.90;;;;;;5034458;28;20746;-60
2021/05/09 07:56:46;;;;;;;4.50;1.55;;;17.70;99.90;;;;;;5034029;28;20293;-59
2021/05/09 07:59:12;;;;;;;3.63;1.80;;;17.80;99.90;;;;;;5042809;28;20268;-59
2021/05/09 08:01:39;;;;;;;2.00;1.60;;;17.80;99.90;;;;;;5054242;28;20222;-60
2021/05/09 08:04:06;;;;;;;1.75;1.42;;;17.90;99.90;;;;;;5054284;28;20284;-60
2021/05/09 08:06:33;;;;;;;1.90;1.70;;;17.90;99.90;;;;;;5054325;28;20275;-59
2021/05/09 08:09:00;;;;;;;2.65;1.73;;;18.10;99.90;;;;;;5053931;28;20247;-59
2021/05/09 08:11:28;;;;;;;2.70;1.75;;;18.10;99.90;;;;;;5053491;28;20213;-60
2021/05/09 08:13:55;;;;;;;1.95;1.73;;;18.10;99.90;;;;;;5054192;28;20284;-59
2021/05/09 08:16:21;;;;;;;2.50;1.60;;;18.20;99.90;;;;;;5054281;28;20606;-60
2021/05/09 08:18:48;;;;;;;2.03;1.50;;;18.30;99.90;;;;;;5053682;28;20202;-59
2021/05/09 08:21:15;;;;;;;3.15;1.80;;;18.40;99.90;;;;;;5052432;28;20695;-59
2021/05/09 08:23:44;;;;;;;1.85;1.60;;;18.50;99.90;;;;;;5053659;28;20300;-59
2021/05/09 08:26:11;;;;;;;1.98;1.42;;;18.50;99.90;;;;;;5053203;28;20647;-59
2021/05/09 08:28:40;;;;;;;2.28;1.50;;;18.60;99.90;;;;;;5052961;28;20256;-60
2021/05/09 08:31:09;;;;;;;1.92;1.60;;;18.70;99.90;;;;;;5053666;28;20204;-58
2021/05/09 08:33:36;;;;;;;1.55;1.40;;;18.80;99.90;;;;;;5053348;28;20209;-59
2021/05/09 08:36:03;;;;;;;1.88;1.67;;;18.80;99.90;;;;;;5053391;28;20201;-59
2021/05/09 08:38:30;;;;;;;1.70;1.52;;;18.90;99.90;;;;;;5053538;28;20300;-59
2021/05/09 08:40:58;;;;;;;1.75;1.60;;;18.90;99.90;;;;;;5052818;28;20256;-59
2021/05/09 08:43:25;;;;;;;2.38;1.80;;;18.90;99.90;;;;;;5053211;28;20260;-58
2021/05/09 08:45:53;;;;;;;2.60;1.75;;;18.90;99.90;;;;;;5053272;28;20300;-59
2021/05/09 08:48:23;;;;;;;2.47;1.67;;;19.00;99.90;;;;;;5053246;28;20233;-66
2021/05/09 08:50:51;;;;;;;1.85;1.50;;;19.10;99.90;;;;;;5053428;28;20205;-66
2021/05/09 08:53:18;;;;;;;1.50;1.40;;;19.10;99.90;;;;;;5052991;28;20892;-66
2021/05/09 08:55:45;;;;;;;1.67;1.58;;;19.20;99.90;;;;;;5052828;28;20279;-66
2021/05/09 08:58:14;;;;;;;2.17;1.52;;;19.20;99.90;;;;;;5052384;28;20202;-65
2021/05/09 09:00:41;;;;;;;1.50;1.40;;;19.30;99.90;;;;;;5052910;28;20217;-66
2021/05/09 09:03:12;;;;;;;1.48;1.38;;;19.50;99.90;;;;;;5052946;28;20205;-66
2021/05/09 09:05:41;;;;;;;1.90;1.42;;;19.50;99.90;;;;;;5052736;28;20193;-66
2021/05/09 09:08:09;;;;;;;3.25;1.52;;;19.60;99.90;;;;;;5052748;28;20208;-66
2021/05/09 09:10:38;;;;;;;3.10;1.55;;;19.70;99.90;;;;;;5052178;28;20211;-67
2021/05/09 09:13:23;;;;;;;1.50;1.40;;;19.70;99.90;;;;;;5052751;28;20201;-65
2021/05/09 09:15:53;;;;;;;2.60;1.77;;;19.80;99.90;;;;;;5052852;28;20240;-67
2021/05/09 09:18:29;;;;;;;2.20;1.40;;;19.90;99.90;;;;;;5052707;28;20201;-66
2021/05/09 09:20:56;;;;;;;1.85;1.63;;;20.00;99.90;;;;;;5052000;28;20227;-66
2021/05/09 09:23:23;;;;;;;1.63;1.52;;;20.10;99.90;;;;;;5051305;28;20611;-66
2021/05/09 09:25:50;;;;;;;1.90;1.48;;;20.10;99.90;;;;;;5050473;28;20197;-66
2021/05/09 09:28:18;;;;;;;1.73;1.40;;;20.20;99.90;;;;;;5052085;28;20225;-66
2021/05/09 09:30:52;;;;;;;1.83;1.58;;;20.30;99.90;;;;;;5052563;28;20221;-66
2021/05/09 09:33:20;;;;;;;3.63;1.70;;;20.20;99.90;;;;;;5052552;28;20196;-66
2021/05/09 09:35:50;;;;;;;2.38;1.65;;;20.30;99.90;;;;;;5051908;28;20207;-66
2021/05/09 09:38:28;;;;;;;1.83;1.48;;;20.50;99.90;;;;;;5052208;28;20221;-67
2021/05/09 09:41:15;;;;;;;3.13;1.50;;;20.50;99.90;;;;;;5051932;28;20258;-66
2021/05/09 09:43:45;;;;;;;3.40;2.25;;;20.70;99.90;;;;;;5052470;28;20280;-66
2021/05/09 09:46:26;;;;;;;2.30;1.67;;;20.70;99.90;;;;;;5052242;28;20659;-66
2021/05/09 09:48:53;;;;;;;2.80;1.35;;;20.80;99.90;;;;;;5052202;28;20213;-66
2021/05/09 09:51:21;;;;;;;2.45;1.50;;;20.80;99.90;;;;;;5051776;28;20592;-65
2021/05/09 09:53:49;;;;;;;2.40;1.40;;;20.90;99.90;;;;;;5052351;28;20201;-67
2021/05/09 09:56:17;;;;;;;1.75;1.50;;;21.00;99.90;;;;;;5051960;28;20296;-67
2021/05/09 09:58:50;;;;;;;1.42;1.33;;;21.00;99.90;;;;;;5051996;28;20208;-67
2021/05/09 10:01:19;;;;;;;3.58;1.55;;;21.10;99.90;;;;;;5052213;28;20359;-66
2021/05/09 10:03:47;;;;;;;1.52;1.42;;;21.10;99.90;;;;;;5051928;28;20673;-66
2021/05/09 10:06:15;;;;;;;1.35;1.25;;;21.20;99.90;;;;;;5052004;28;20657;-66
2021/05/09 10:08:42;;;;;;;1.48;1.38;;;21.20;99.90;;;;;;5051759;28;20694;-66
2021/05/09 10:11:10;;;;;;;2.00;1.40;;;21.30;99.90;;;;;;5055447;28;20207;-67
2021/05/09 10:13:37;;;;;;;2.25;1.58;;;21.40;99.90;;;;;;5056027;28;20207;-69
2021/05/09 10:16:05;;;;;;;1.98;1.77;;;21.50;99.90;;;;;;5056154;28;20197;-67
2021/05/09 10:18:33;;;;;;;2.40;1.63;;;21.70;99.90;;;;;;5056255;28;20197;-66
2021/05/09 10:21:01;;;;;;;2.28;1.80;;;21.70;99.90;;;;;;5055726;28;20257;-66
2021/05/09 10:23:28;;;;;;;2.08;1.35;;;21.80;99.90;;;;;;5055856;28;20621;-67
2021/05/09 10:25:57;;;;;;;2.05;1.80;;;21.90;99.90;;;;;;5055622;28;20224;-66
2021/05/09 10:28:25;;;;;;;3.97;1.58;;;22.00;99.90;;;;;;5055540;28;20235;-66
2021/05/09 10:30:54;;;;;;;2.50;1.48;;;22.00;99.90;;;;;;5055772;28;20709;-65
2021/05/09 10:33:43;;;;;;;1.77;1.67;;;22.10;99.90;;;;;;5055578;28;20259;-66
2021/05/09 10:36:27;;;;;;;2.38;2.00;;;22.10;99.90;;;;;;5055483;28;20207;-66
2021/05/09 10:39:07;;;;;;;1.73;1.63;;;22.20;99.90;;;;;;5053507;28;20748;-65
2021/05/09 10:41:36;;;;;;;1.38;1.27;;;22.30;99.90;;;;;;5053852;28;20264;-65
2021/05/09 10:44:36;;;;;;;4.35;2.05;;;22.30;99.90;;;;;;5055652;28;20705;-67
2021/05/09 10:47:04;;;;;;;1.80;1.48;;;22.40;99.90;;;;;;5055761;28;20208;-66
2021/05/09 10:49:32;;;;;;;1.90;1.70;;;22.50;99.90;;;;;;5055934;28;20197;-66
2021/05/09 10:52:18;;;;;;;3.53;2.00;;;22.50;99.90;;;;;;5055989;28;20194;-67
2021/05/09 10:54:46;;;;;;;1.60;1.45;;;22.60;99.90;;;;;;5055669;28;20288;-66
2021/05/09 10:57:45;;;;;;;3.00;1.70;;;22.80;99.90;;;;;;5055467;28;20207;-65
2021/05/09 11:00:12;;;;;;;1.52;1.42;;;22.80;99.90;;;;;;5055670;28;20189;-65
2021/05/09 11:02:39;;;;;;;2.38;1.50;;;22.90;99.90;;;;;;5055194;28;20284;-66
2021/05/09 11:05:06;;;;;;;2.10;1.60;;;22.90;99.90;;;;;;5054581;28;20209;-66
2021/05/09 11:07:44;;;;;;;2.03;1.50;;;23.00;99.90;;;;;;5054976;28;20697;-66
2021/05/09 11:10:39;;;;;;;2.20;1.70;;;23.00;99.90;;;;;;5055388;28;20205;-68
2021/05/09 11:13:06;;;;;;;1.60;1.50;;;23.10;99.90;;;;;;5054578;28;20229;-66
2021/05/09 11:15:34;;;;;;;1.92;1.60;;;23.20;99.90;;;;;;5055133;28;20689;-66
2021/05/09 11:18:02;;;;;;;2.38;1.60;;;23.30;99.90;;;;;;5055153;28;20204;-66
2021/05/09 11:20:29;;;;;;;1.50;1.40;;;23.20;99.90;;;;;;5055013;28;20197;-65
2021/05/09 11:22:57;;;;;;;1.52;1.40;;;23.30;99.90;;;;;;5054972;28;20292;-66
2021/05/09 11:25:31;;;;;;;1.50;1.40;;;23.30;99.90;;;;;;5055239;28;20201;-66
2021/05/09 11:28:02;;;;;;;1.85;1.40;;;23.50;99.90;;;;;;5054498;28;20236;-67
2021/05/09 11:30:33;;;;;;;1.88;1.63;;;23.70;99.90;;;;;;5053785;28;20210;-66
2021/05/09 11:33:00;;;;;;;1.63;1.42;;;23.70;99.90;;;;;;5054240;28;20208;-66
2021/05/09 11:35:36;;;;;;;2.47;1.52;;;23.80;99.90;;;;;;5054394;28;20233;-66
2021/05/09 11:38:03;;;;;;;2.65;1.30;;;23.90;99.90;;;;;;5054961;28;20273;-66
2021/05/09 11:40:30;;;;;;;1.60;1.50;;;23.90;99.90;;;;;;5054298;28;20259;-67
2021/05/09 11:42:57;;;;;;;1.42;1.15;;;23.90;99.90;;;;;;5054763;28;20216;-66
2021/05/09 11:45:26;;;;;;;1.67;1.58;;;24.00;99.90;;;;;;5054352;28;20208;-66
2021/05/09 11:47:53;;;;;;;1.85;1.42;;;24.00;99.90;;;;;;5054581;28;20215;-66
2021/05/09 11:50:20;;;;;;;2.40;1.70;;;24.10;99.90;;;;;;5054509;28;20209;-67
2021/05/09 11:52:47;;;;;;;3.33;1.65;;;24.20;99.90;;;;;;5054322;28;20296;-66
2021/05/09 11:55:15;;;;;;;3.78;1.75;;;24.20;99.90;;;;;;5053811;28;20215;-66
2021/05/09 11:57:43;;;;;;;3.70;1.40;;;24.30;99.90;;;;;;5054547;28;20209;-66
2021/05/09 12:00:12;;;;;;;3.03;1.42;;;24.40;99.90;;;;;;5054225;28;20336;-65
2021/05/09 12:02:41;;;;;;;1.92;1.70;;;24.40;99.90;;;;;;5054080;28;20629;-67
2021/05/09 12:05:10;;;;;;;1.83;1.60;;;24.40;99.90;;;;;;5054221;28;20232;-66
2021/05/09 12:07:43;;;;;;;1.70;1.60;;;24.40;99.90;;;;;;5053279;28;20258;-66
2021/05/09 12:10:12;;;;;;;2.97;1.80;;;24.50;99.90;;;;;;5054315;28;20266;-67
2021/05/09 12:12:41;;;;;;;2.05;1.70;;;24.50;99.90;;;;;;5053791;28;20212;-66
2021/05/09 12:15:13;;;;;;;2.08;1.65;;;24.60;99.90;;;;;;5053877;28;20292;-67
2021/05/09 12:17:52;;;;;;;1.70;1.40;;;24.70;99.90;;;;;;5054033;28;20205;-65
2021/05/09 12:20:30;;;;;;;2.10;1.90;;;24.80;99.90;;;;;;5053967;28;20316;-66
2021/05/09 12:23:00;;;;;;;2.35;1.67;;;24.90;99.90;;;;;;5053904;28;20189;-59
2021/05/09 12:25:33;;;;;;;1.92;1.65;;;25.00;99.90;;;;;;5053951;28;20241;-59
2021/05/09 12:28:11;;;;;;;2.83;1.60;;;25.00;99.90;;;;;;5053585;28;20244;-59
2021/05/09 12:30:38;;;;;;;1.60;1.50;;;25.00;99.90;;;;;;5053528;28;20329;-59
2021/05/09 12:33:06;;;;;;;1.35;1.25;;;25.00;99.90;;;;;;5052675;28;20216;-59
2021/05/09 12:35:48;;;;;;;2.42;1.67;;;25.00;99.90;;;;;;5053091;28;20241;-59
2021/05/09 12:38:23;;;;;;;3.95;1.80;;;25.00;99.90;;;;;;5053135;28;20232;-59
2021/05/09 12:41:01;;;;;;;2.05;1.80;;;25.10;99.90;;;;;;5052927;28;20311;-59
2021/05/09 12:43:41;;;;;;;1.92;1.50;;;25.20;99.90;;;;;;5052103;28;20289;-59
2021/05/09 12:46:08;;;;;;;3.20;1.65;;;25.10;99.90;;;;;;5052813;28;20284;-58
2021/05/09 12:48:35;;;;;;;2.05;1.73;;;25.20;99.90;;;;;;5053446;28;20815;-58
2021/05/09 12:51:04;;;;;;;2.58;1.52;;;25.20;99.90;;;;;;5053491;28;20198;-59
2021/05/09 12:53:40;;;;;;;2.00;1.55;;;25.30;99.90;;;;;;5053581;28;20232;-59
2021/05/09 12:56:32;;;;;;;1.85;1.55;;;25.40;99.90;;;;;;5053605;28;20196;-59